Amory, Mississippi
Current Conditions -  °F | °C
As of 10:35 AM on Monday 26 Jan 2015 (Local Time) from KM40 Reporting Station
Overcast Overcast  
Wind Chill:   Ceiling: 2000
Heat Index:   Visibility: 10mi
Dew Point:   Wind: 12mph
Humidity: 66%   Direction: 320°NW
Pressure: 30.12"   Gusts: NA
Location:  33.99°N, 88.49°W
Report Text: KM40 261635Z AUTO 32010KT 10SM OVC020 06/00 A3012 RMK AO2
Loading
Personal Weather Stations






























Interactive Weather Map New forecast layout! Learn more

10-Day Weather Forecast

Advertisements
Track Severe Weather on mobile